This is the latest recevied weather packets stored in our database for station/object W6JCZ-13. If no packets are shown the sender has not sent any weather packets the latest 1 day(s).
| Time | Temp. | Humidity | Pressure | Rain* | Wind** | Luminosity | Snow |
|---|---|---|---|---|---|---|---|
| 1778033716 | 17.78° C | 72% | 1013 hPa | 0 mm | 0.45 m/s, 203° | - | - |
| 1778033116 | 18.33° C | 73% | 1013 hPa | 0 mm | 0.45 m/s, 180° | - | - |
| 1778032516 | 18.33° C | 71% | 1012.9 hPa | 0 mm | 0.89 m/s, 203° | - | - |
| 1778031916 | 18.33° C | 71% | 1013 hPa | 0 mm | 0.89 m/s, 203° | - | - |
| 1778031316 | 18.33° C | 71% | 1012.8 hPa | 0 mm | 0.89 m/s, 203° | - | - |
| 1778030716 | 18.33° C | 70% | 1012.9 hPa | 0 mm | 0.89 m/s, 203° | - | - |
| 1778030128 | 18.33° C | 70% | 1012.8 hPa | 0 mm | 0.89 m/s, 180° | - | - |
| 1778029516 | 18.89° C | 70% | 1012.7 hPa | 0 mm | 0.89 m/s, 135° | - | - |
| 1778028916 | 18.89° C | 70% | 1012.8 hPa | 0 mm | 0.45 m/s, 158° | - | - |
| 1778028316 | 18.89° C | 69% | 1012.7 hPa | 0 mm | 0.45 m/s, 225° | - | - |
| 1778027716 | 18.89° C | 68% | 1012.7 hPa | 0 mm | 0.45 m/s, 225° | - | - |
| 1778027116 | 18.89° C | 67% | 1012.7 hPa | 0 mm | 0.45 m/s, 135° | - | - |
| 1778026516 | 19.44° C | 67% | 1012.8 hPa | 0 mm | 0.45 m/s, 180° | - | - |
| 1778025916 | 19.44° C | 67% | 1012.7 hPa | 0 mm | 0.45 m/s, 135° | - | - |
| 1778025316 | 19.44° C | 67% | 1012.7 hPa | 0 mm | 0.45 m/s, 135° | - | - |
| 1778024716 | 19.44° C | 67% | 1012.6 hPa | 0 mm | 0.45 m/s, 225° | - | - |
| 1778024116 | 19.44° C | 68% | 1012.6 hPa | 0 mm | 0.45 m/s, 113° | - | - |
| 1778023516 | 19.44° C | 66% | 1012.6 hPa | 0 mm | 0.45 m/s, 113° | - | - |
| 1778022916 | 20° C | 67% | 1012.7 hPa | 0 mm | 0.45 m/s, 135° | - | - |
| 1778021116 | 19.44° C | 66% | 1012.9 hPa | 0 mm | 0.45 m/s, 135° | - | - |
| 1778020516 | 19.44° C | 68% | 1012.9 hPa | 0 mm | 0.45 m/s, 135° | - | - |
| 1778019916 | 19.44° C | 68% | 1013 hPa | 0 mm | 0.45 m/s, 135° | - | - |
| 1778015715 | 18.89° C | 69% | 1013.7 hPa | 0 mm | 0.45 m/s, 113° | - | - |
| 1778014516 | 18.89° C | 70% | 1013.7 hPa | 0 mm | 0.45 m/s, 113° | - | - |
| 1778004318 | 15° C | 82% | 1013.8 hPa | 0 mm | 0.45 m/s, 338° | - | - |
* Rain latest hour (hover to see other rain measurements)
** Current wind speed in m/s (hover to see current wind gust speed)